sensor_id;sensor_type;location;lat;lon;timestamp;P1;durP1;ratioP1;P2;durP2;ratioP2
7479;SDS011;3781;42.272;22.658;2022-10-01T00:00:47;3.23;;;2.23;;
7479;SDS011;3781;42.272;22.658;2022-10-01T00:03:14;2.50;;;1.80;;
7479;SDS011;3781;42.272;22.658;2022-10-01T00:05:41;4.53;;;2.10;;
7479;SDS011;3781;42.272;22.658;2022-10-01T00:08:08;2.50;;;1.87;;
7479;SDS011;3781;42.272;22.658;2022-10-01T00:10:39;4.17;;;2.93;;
7479;SDS011;3781;42.272;22.658;2022-10-01T00:13:06;9.70;;;2.67;;
7479;SDS011;3781;42.272;22.658;2022-10-01T00:15:33;4.40;;;3.30;;
7479;SDS011;3781;42.272;22.658;2022-10-01T00:18:00;5.17;;;3.60;;
7479;SDS011;3781;42.272;22.658;2022-10-01T00:20:27;7.27;;;4.47;;
7479;SDS011;3781;42.272;22.658;2022-10-01T00:22:54;4.97;;;3.23;;
7479;SDS011;3781;42.272;22.658;2022-10-01T00:25:21;5.33;;;2.70;;
7479;SDS011;3781;42.272;22.658;2022-10-01T00:27:50;4.17;;;3.10;;
7479;SDS011;3781;42.272;22.658;2022-10-01T00:30:17;3.67;;;2.77;;
7479;SDS011;3781;42.272;22.658;2022-10-01T00:32:45;4.37;;;3.17;;
7479;SDS011;3781;42.272;22.658;2022-10-01T00:35:12;2.37;;;2.17;;
7479;SDS011;3781;42.272;22.658;2022-10-01T00:37:39;2.47;;;2.27;;
7479;SDS011;3781;42.272;22.658;2022-10-01T00:40:07;4.37;;;3.23;;
7479;SDS011;3781;42.272;22.658;2022-10-01T00:42:34;5.10;;;2.97;;
7479;SDS011;3781;42.272;22.658;2022-10-01T00:45:02;3.37;;;2.70;;
7479;SDS011;3781;42.272;22.658;2022-10-01T00:47:30;5.03;;;3.57;;
7479;SDS011;3781;42.272;22.658;2022-10-01T00:50:03;4.37;;;2.77;;
7479;SDS011;3781;42.272;22.658;2022-10-01T00:52:35;3.00;;;2.43;;
7479;SDS011;3781;42.272;22.658;2022-10-01T00:55:06;3.10;;;2.60;;
7479;SDS011;3781;42.272;22.658;2022-10-01T00:57:37;2.90;;;2.33;;
7479;SDS011;3781;42.272;22.658;2022-10-01T01:00:07;7.50;;;2.27;;
7479;SDS011;3781;42.272;22.658;2022-10-01T01:02:36;8.13;;;2.67;;
7479;SDS011;3781;42.272;22.658;2022-10-01T01:05:03;2.93;;;2.50;;
7479;SDS011;3781;42.272;22.658;2022-10-01T01:07:33;3.17;;;2.63;;
7479;SDS011;3781;42.272;22.658;2022-10-01T01:10:00;16.30;;;2.97;;
7479;SDS011;3781;42.272;22.658;2022-10-01T01:12:32;2.67;;;2.47;;
7479;SDS011;3781;42.272;22.658;2022-10-01T01:15:13;3.03;;;2.37;;
7479;SDS011;3781;42.272;22.658;2022-10-01T01:17:46;2.90;;;2.60;;
7479;SDS011;3781;42.272;22.658;2022-10-01T01:20:27;2.93;;;2.33;;
7479;SDS011;3781;42.272;22.658;2022-10-01T01:23:10;15.20;;;3.23;;
7479;SDS011;3781;42.272;22.658;2022-10-01T01:26:06;2.70;;;2.17;;
7479;SDS011;3781;42.272;22.658;2022-10-01T01:28:43;3.00;;;2.43;;
7479;SDS011;3781;42.272;22.658;2022-10-01T01:31:16;3.63;;;2.30;;
7479;SDS011;3781;42.272;22.658;2022-10-01T01:33:47;1.97;;;1.83;;
7479;SDS011;3781;42.272;22.658;2022-10-01T01:36:17;3.03;;;2.70;;
7479;SDS011;3781;42.272;22.658;2022-10-01T01:38:48;3.37;;;3.00;;
7479;SDS011;3781;42.272;22.658;2022-10-01T01:41:19;2.53;;;2.17;;
7479;SDS011;3781;42.272;22.658;2022-10-01T01:43:51;3.30;;;2.70;;
7479;SDS011;3781;42.272;22.658;2022-10-01T01:46:21;3.00;;;2.00;;
7479;SDS011;3781;42.272;22.658;2022-10-01T01:48:56;2.17;;;1.87;;
7479;SDS011;3781;42.272;22.658;2022-10-01T01:51:28;3.00;;;2.60;;
7479;SDS011;3781;42.272;22.658;2022-10-01T01:53:59;5.73;;;2.70;;
7479;SDS011;3781;42.272;22.658;2022-10-01T01:56:26;2.87;;;2.20;;
7479;SDS011;3781;42.272;22.658;2022-10-01T01:58:54;1.07;;;1.03;;
7479;SDS011;3781;42.272;22.658;2022-10-01T02:01:32;1.80;;;1.57;;
7479;SDS011;3781;42.272;22.658;2022-10-01T02:04:00;1.63;;;1.53;;
7479;SDS011;3781;42.272;22.658;2022-10-01T02:06:31;3.43;;;2.00;;
7479;SDS011;3781;42.272;22.658;2022-10-01T02:09:09;7.63;;;1.93;;
7479;SDS011;3781;42.272;22.658;2022-10-01T02:11:49;2.43;;;2.23;;
7479;SDS011;3781;42.272;22.658;2022-10-01T02:14:30;2.07;;;1.80;;
7479;SDS011;3781;42.272;22.658;2022-10-01T02:17:06;3.77;;;2.43;;
7479;SDS011;3781;42.272;22.658;2022-10-01T02:19:40;2.80;;;2.30;;
7479;SDS011;3781;42.272;22.658;2022-10-01T02:22:16;4.03;;;2.40;;
7479;SDS011;3781;42.272;22.658;2022-10-01T02:24:46;2.40;;;2.20;;
7479;SDS011;3781;42.272;22.658;2022-10-01T02:27:22;3.70;;;2.17;;
7479;SDS011;3781;42.272;22.658;2022-10-01T02:29:56;4.13;;;2.90;;
7479;SDS011;3781;42.272;22.658;2022-10-01T02:32:25;3.20;;;2.20;;
7479;SDS011;3781;42.272;22.658;2022-10-01T02:34:52;2.30;;;2.10;;
7479;SDS011;3781;42.272;22.658;2022-10-01T02:37:20;3.53;;;3.23;;
7479;SDS011;3781;42.272;22.658;2022-10-01T02:39:50;4.37;;;2.47;;
7479;SDS011;3781;42.272;22.658;2022-10-01T02:42:20;2.60;;;2.43;;
7479;SDS011;3781;42.272;22.658;2022-10-01T02:44:49;3.47;;;2.10;;
7479;SDS011;3781;42.272;22.658;2022-10-01T02:47:21;2.80;;;2.60;;
7479;SDS011;3781;42.272;22.658;2022-10-01T02:49:52;2.60;;;2.47;;
7479;SDS011;3781;42.272;22.658;2022-10-01T02:52:21;2.00;;;1.90;;
7479;SDS011;3781;42.272;22.658;2022-10-01T02:54:53;2.87;;;2.47;;
7479;SDS011;3781;42.272;22.658;2022-10-01T02:57:23;2.30;;;2.10;;
7479;SDS011;3781;42.272;22.658;2022-10-01T02:59:52;3.13;;;2.60;;
7479;SDS011;3781;42.272;22.658;2022-10-01T03:02:23;1.80;;;1.70;;
7479;SDS011;3781;42.272;22.658;2022-10-01T03:04:51;2.93;;;2.27;;
7479;SDS011;3781;42.272;22.658;2022-10-01T03:07:18;3.93;;;3.17;;
7479;SDS011;3781;42.272;22.658;2022-10-01T03:09:45;4.63;;;1.90;;
7479;SDS011;3781;42.272;22.658;2022-10-01T03:12:13;3.80;;;3.50;;
7479;SDS011;3781;42.272;22.658;2022-10-01T03:14:41;2.40;;;1.50;;
7479;SDS011;3781;42.272;22.658;2022-10-01T03:17:08;3.00;;;2.47;;
7479;SDS011;3781;42.272;22.658;2022-10-01T03:19:37;2.70;;;2.30;;
7479;SDS011;3781;42.272;22.658;2022-10-01T03:22:04;5.40;;;2.53;;
7479;SDS011;3781;42.272;22.658;2022-10-01T03:24:31;2.20;;;2.03;;
7479;SDS011;3781;42.272;22.658;2022-10-01T03:26:58;3.17;;;2.53;;
7479;SDS011;3781;42.272;22.658;2022-10-01T03:29:25;3.27;;;2.13;;
7479;SDS011;3781;42.272;22.658;2022-10-01T03:31:52;2.53;;;1.80;;
7479;SDS011;3781;42.272;22.658;2022-10-01T03:34:18;2.23;;;1.80;;
7479;SDS011;3781;42.272;22.658;2022-10-01T03:36:47;2.90;;;2.70;;
7479;SDS011;3781;42.272;22.658;2022-10-01T03:39:15;2.23;;;2.00;;
7479;SDS011;3781;42.272;22.658;2022-10-01T03:41:42;2.07;;;1.90;;
7479;SDS011;3781;42.272;22.658;2022-10-01T03:44:09;2.70;;;2.20;;
7479;SDS011;3781;42.272;22.658;2022-10-01T03:46:36;2.63;;;2.43;;
7479;SDS011;3781;42.272;22.658;2022-10-01T03:49:03;2.97;;;2.50;;
7479;SDS011;3781;42.272;22.658;2022-10-01T03:51:30;4.70;;;2.50;;
7479;SDS011;3781;42.272;22.658;2022-10-01T03:53:58;4.97;;;2.53;;
7479;SDS011;3781;42.272;22.658;2022-10-01T03:56:25;2.50;;;2.23;;
7479;SDS011;3781;42.272;22.658;2022-10-01T03:58:52;2.20;;;1.57;;
7479;SDS011;3781;42.272;22.658;2022-10-01T04:01:19;2.10;;;1.63;;
7479;SDS011;3781;42.272;22.658;2022-10-01T04:03:46;4.97;;;1.77;;
7479;SDS011;3781;42.272;22.658;2022-10-01T04:06:14;2.97;;;2.67;;
7479;SDS011;3781;42.272;22.658;2022-10-01T04:08:41;2.47;;;1.70;;
7479;SDS011;3781;42.272;22.658;2022-10-01T04:11:09;2.93;;;2.03;;
7479;SDS011;3781;42.272;22.658;2022-10-01T04:13:36;5.63;;;2.43;;
7479;SDS011;3781;42.272;22.658;2022-10-01T04:16:03;3.00;;;2.07;;
7479;SDS011;3781;42.272;22.658;2022-10-01T04:18:32;3.80;;;2.43;;
7479;SDS011;3781;42.272;22.658;2022-10-01T04:20:59;5.50;;;3.07;;
7479;SDS011;3781;42.272;22.658;2022-10-01T04:23:26;3.10;;;1.83;;
7479;SDS011;3781;42.272;22.658;2022-10-01T04:25:53;3.03;;;1.93;;
7479;SDS011;3781;42.272;22.658;2022-10-01T04:28:21;3.83;;;2.60;;
7479;SDS011;3781;42.272;22.658;2022-10-01T04:30:48;3.80;;;2.17;;
7479;SDS011;3781;42.272;22.658;2022-10-01T04:33:35;2.03;;;1.73;;
7479;SDS011;3781;42.272;22.658;2022-10-01T04:36:02;2.30;;;1.57;;
7479;SDS011;3781;42.272;22.658;2022-10-01T04:38:28;2.67;;;1.63;;
7479;SDS011;3781;42.272;22.658;2022-10-01T04:40:55;2.90;;;2.70;;
7479;SDS011;3781;42.272;22.658;2022-10-01T04:43:23;3.80;;;3.03;;
7479;SDS011;3781;42.272;22.658;2022-10-01T04:45:50;3.40;;;1.70;;
7479;SDS011;3781;42.272;22.658;2022-10-01T04:48:17;2.17;;;2.07;;
7479;SDS011;3781;42.272;22.658;2022-10-01T04:50:44;2.47;;;2.27;;
7479;SDS011;3781;42.272;22.658;2022-10-01T04:53:10;3.00;;;2.33;;
7479;SDS011;3781;42.272;22.658;2022-10-01T04:55:37;2.77;;;2.57;;
7479;SDS011;3781;42.272;22.658;2022-10-01T04:58:04;3.87;;;2.40;;
7479;SDS011;3781;42.272;22.658;2022-10-01T05:00:32;5.43;;;2.80;;
7479;SDS011;3781;42.272;22.658;2022-10-01T05:02:59;3.77;;;3.17;;
7479;SDS011;3781;42.272;22.658;2022-10-01T05:05:26;4.23;;;3.23;;
7479;SDS011;3781;42.272;22.658;2022-10-01T05:07:53;5.83;;;4.20;;
7479;SDS011;3781;42.272;22.658;2022-10-01T05:10:20;5.30;;;3.70;;
7479;SDS011;3781;42.272;22.658;2022-10-01T05:12:49;10.87;;;2.60;;
7479;SDS011;3781;42.272;22.658;2022-10-01T05:15:17;4.87;;;2.93;;
7479;SDS011;3781;42.272;22.658;2022-10-01T05:17:46;2.83;;;2.63;;
7479;SDS011;3781;42.272;22.658;2022-10-01T05:20:14;3.93;;;2.87;;
7479;SDS011;3781;42.272;22.658;2022-10-01T05:22:42;7.17;;;3.23;;
7479;SDS011;3781;42.272;22.658;2022-10-01T05:25:09;4.43;;;3.50;;
7479;SDS011;3781;42.272;22.658;2022-10-01T05:27:36;4.53;;;3.17;;
7479;SDS011;3781;42.272;22.658;2022-10-01T05:30:05;2.63;;;2.43;;
7479;SDS011;3781;42.272;22.658;2022-10-01T05:32:33;3.27;;;2.57;;
7479;SDS011;3781;42.272;22.658;2022-10-01T05:35:01;4.63;;;3.40;;
7479;SDS011;3781;42.272;22.658;2022-10-01T05:37:28;5.60;;;3.17;;
7479;SDS011;3781;42.272;22.658;2022-10-01T05:39:55;3.33;;;2.60;;
7479;SDS011;3781;42.272;22.658;2022-10-01T05:42:22;3.47;;;2.77;;
7479;SDS011;3781;42.272;22.658;2022-10-01T05:44:49;2.90;;;2.47;;
7479;SDS011;3781;42.272;22.658;2022-10-01T05:47:16;3.83;;;3.03;;
7479;SDS011;3781;42.272;22.658;2022-10-01T05:49:44;2.47;;;2.00;;
7479;SDS011;3781;42.272;22.658;2022-10-01T05:52:13;3.40;;;2.80;;
7479;SDS011;3781;42.272;22.658;2022-10-01T05:54:40;2.87;;;2.30;;
7479;SDS011;3781;42.272;22.658;2022-10-01T05:57:07;4.07;;;2.77;;
7479;SDS011;3781;42.272;22.658;2022-10-01T05:59:34;2.33;;;2.10;;
7479;SDS011;3781;42.272;22.658;2022-10-01T06:02:02;4.33;;;3.07;;
7479;SDS011;3781;42.272;22.658;2022-10-01T06:04:30;3.83;;;2.83;;
7479;SDS011;3781;42.272;22.658;2022-10-01T06:06:56;3.47;;;2.50;;
7479;SDS011;3781;42.272;22.658;2022-10-01T06:09:25;6.63;;;3.53;;
7479;SDS011;3781;42.272;22.658;2022-10-01T06:11:52;3.70;;;2.53;;
7479;SDS011;3781;42.272;22.658;2022-10-01T06:14:19;2.97;;;2.57;;
7479;SDS011;3781;42.272;22.658;2022-10-01T06:16:46;10.73;;;3.43;;
7479;SDS011;3781;42.272;22.658;2022-10-01T06:19:13;4.47;;;3.17;;
7479;SDS011;3781;42.272;22.658;2022-10-01T06:21:41;5.40;;;3.50;;
7479;SDS011;3781;42.272;22.658;2022-10-01T06:24:08;8.50;;;4.03;;
7479;SDS011;3781;42.272;22.658;2022-10-01T06:26:36;4.57;;;3.33;;
7479;SDS011;3781;42.272;22.658;2022-10-01T06:29:15;5.07;;;4.00;;
7479;SDS011;3781;42.272;22.658;2022-10-01T06:31:42;5.10;;;3.37;;
7479;SDS011;3781;42.272;22.658;2022-10-01T06:34:09;7.53;;;2.87;;
7479;SDS011;3781;42.272;22.658;2022-10-01T06:36:36;5.17;;;3.60;;
7479;SDS011;3781;42.272;22.658;2022-10-01T06:39:03;3.67;;;2.80;;
7479;SDS011;3781;42.272;22.658;2022-10-01T06:41:29;6.20;;;2.80;;
7479;SDS011;3781;42.272;22.658;2022-10-01T06:43:58;9.90;;;2.97;;
7479;SDS011;3781;42.272;22.658;2022-10-01T06:46:25;3.30;;;3.00;;
7479;SDS011;3781;42.272;22.658;2022-10-01T06:48:52;3.30;;;3.00;;
7479;SDS011;3781;42.272;22.658;2022-10-01T06:51:19;2.93;;;2.67;;
7479;SDS011;3781;42.272;22.658;2022-10-01T06:54:06;2.90;;;2.60;;
7479;SDS011;3781;42.272;22.658;2022-10-01T06:56:33;5.43;;;4.17;;
7479;SDS011;3781;42.272;22.658;2022-10-01T06:59:02;6.93;;;3.40;;
7479;SDS011;3781;42.272;22.658;2022-10-01T07:01:29;5.67;;;3.73;;
7479;SDS011;3781;42.272;22.658;2022-10-01T07:03:56;6.33;;;3.93;;
7479;SDS011;3781;42.272;22.658;2022-10-01T07:06:23;3.63;;;2.87;;
7479;SDS011;3781;42.272;22.658;2022-10-01T07:08:51;6.30;;;3.47;;
7479;SDS011;3781;42.272;22.658;2022-10-01T07:11:18;4.57;;;3.20;;
7479;SDS011;3781;42.272;22.658;2022-10-01T07:13:45;6.47;;;3.37;;
7479;SDS011;3781;42.272;22.658;2022-10-01T07:16:13;3.50;;;2.80;;
7479;SDS011;3781;42.272;22.658;2022-10-01T07:18:40;4.77;;;2.60;;
7479;SDS011;3781;42.272;22.658;2022-10-01T07:21:07;4.83;;;4.27;;
7479;SDS011;3781;42.272;22.658;2022-10-01T07:23:34;6.73;;;4.30;;
7479;SDS011;3781;42.272;22.658;2022-10-01T07:26:02;9.87;;;4.40;;
7479;SDS011;3781;42.272;22.658;2022-10-01T07:28:29;6.17;;;3.50;;
7479;SDS011;3781;42.272;22.658;2022-10-01T07:30:57;5.43;;;4.27;;
7479;SDS011;3781;42.272;22.658;2022-10-01T07:33:27;7.20;;;4.33;;
7479;SDS011;3781;42.272;22.658;2022-10-01T07:35:54;4.50;;;4.00;;
7479;SDS011;3781;42.272;22.658;2022-10-01T07:38:24;12.80;;;5.67;;
7479;SDS011;3781;42.272;22.658;2022-10-01T07:40:51;8.77;;;5.13;;
7479;SDS011;3781;42.272;22.658;2022-10-01T07:43:18;8.97;;;4.57;;
7479;SDS011;3781;42.272;22.658;2022-10-01T07:45:45;8.30;;;4.70;;
7479;SDS011;3781;42.272;22.658;2022-10-01T07:48:13;6.27;;;3.83;;
7479;SDS011;3781;42.272;22.658;2022-10-01T07:50:42;4.90;;;3.60;;
7479;SDS011;3781;42.272;22.658;2022-10-01T07:53:10;5.33;;;3.97;;
7479;SDS011;3781;42.272;22.658;2022-10-01T07:55:37;5.33;;;4.83;;
7479;SDS011;3781;42.272;22.658;2022-10-01T07:58:04;9.17;;;5.10;;
7479;SDS011;3781;42.272;22.658;2022-10-01T08:00:31;8.70;;;5.37;;
7479;SDS011;3781;42.272;22.658;2022-10-01T08:02:59;9.77;;;4.53;;
7479;SDS011;3781;42.272;22.658;2022-10-01T08:05:27;8.90;;;5.73;;
7479;SDS011;3781;42.272;22.658;2022-10-01T08:08:00;7.07;;;4.53;;
7479;SDS011;3781;42.272;22.658;2022-10-01T08:10:29;17.83;;;8.27;;
7479;SDS011;3781;42.272;22.658;2022-10-01T08:12:59;8.20;;;5.10;;
7479;SDS011;3781;42.272;22.658;2022-10-01T08:15:28;8.13;;;4.80;;
7479;SDS011;3781;42.272;22.658;2022-10-01T08:17:55;8.07;;;4.20;;
7479;SDS011;3781;42.272;22.658;2022-10-01T08:20:26;6.17;;;4.57;;
7479;SDS011;3781;42.272;22.658;2022-10-01T08:22:53;6.13;;;4.33;;
7479;SDS011;3781;42.272;22.658;2022-10-01T08:25:21;9.43;;;4.33;;
7479;SDS011;3781;42.272;22.658;2022-10-01T08:27:48;8.47;;;4.60;;
7479;SDS011;3781;42.272;22.658;2022-10-01T08:30:15;9.57;;;5.30;;
7479;SDS011;3781;42.272;22.658;2022-10-01T08:32:41;6.87;;;4.83;;
7479;SDS011;3781;42.272;22.658;2022-10-01T08:35:08;12.33;;;6.10;;
7479;SDS011;3781;42.272;22.658;2022-10-01T08:37:36;13.00;;;6.40;;
7479;SDS011;3781;42.272;22.658;2022-10-01T08:40:03;6.00;;;4.10;;
7479;SDS011;3781;42.272;22.658;2022-10-01T08:42:38;9.30;;;5.17;;
7479;SDS011;3781;42.272;22.658;2022-10-01T08:45:12;11.90;;;6.43;;
7479;SDS011;3781;42.272;22.658;2022-10-01T08:47:41;12.20;;;5.90;;
7479;SDS011;3781;42.272;22.658;2022-10-01T08:50:16;11.97;;;7.13;;
7479;SDS011;3781;42.272;22.658;2022-10-01T08:52:53;10.33;;;6.43;;
7479;SDS011;3781;42.272;22.658;2022-10-01T08:55:25;6.63;;;4.73;;
7479;SDS011;3781;42.272;22.658;2022-10-01T08:57:57;7.37;;;5.20;;
7479;SDS011;3781;42.272;22.658;2022-10-01T09:00:26;7.63;;;4.30;;
7479;SDS011;3781;42.272;22.658;2022-10-01T09:02:56;11.10;;;5.37;;
7479;SDS011;3781;42.272;22.658;2022-10-01T09:05:26;7.90;;;5.30;;
7479;SDS011;3781;42.272;22.658;2022-10-01T09:08:04;7.90;;;4.90;;
7479;SDS011;3781;42.272;22.658;2022-10-01T09:10:42;7.40;;;4.90;;
7479;SDS011;3781;42.272;22.658;2022-10-01T09:13:22;5.93;;;4.87;;
7479;SDS011;3781;42.272;22.658;2022-10-01T09:16:10;9.43;;;4.87;;
7479;SDS011;3781;42.272;22.658;2022-10-01T09:18:47;7.87;;;5.30;;
7479;SDS011;3781;42.272;22.658;2022-10-01T09:21:40;6.10;;;4.20;;
7479;SDS011;3781;42.272;22.658;2022-10-01T09:24:14;6.87;;;3.90;;
7479;SDS011;3781;42.272;22.658;2022-10-01T09:26:46;7.10;;;3.83;;
7479;SDS011;3781;42.272;22.658;2022-10-01T09:29:16;6.40;;;4.87;;
7479;SDS011;3781;42.272;22.658;2022-10-01T09:31:51;7.80;;;5.57;;
7479;SDS011;3781;42.272;22.658;2022-10-01T09:34:23;7.17;;;5.20;;
7479;SDS011;3781;42.272;22.658;2022-10-01T09:36:55;13.53;;;4.90;;
7479;SDS011;3781;42.272;22.658;2022-10-01T09:39:32;11.23;;;4.80;;
7479;SDS011;3781;42.272;22.658;2022-10-01T09:42:03;6.23;;;5.27;;
7479;SDS011;3781;42.272;22.658;2022-10-01T09:44:31;5.83;;;2.77;;
7479;SDS011;3781;42.272;22.658;2022-10-01T09:46:59;2.60;;;2.37;;
7479;SDS011;3781;42.272;22.658;2022-10-01T09:49:27;6.23;;;2.43;;
7479;SDS011;3781;42.272;22.658;2022-10-01T09:51:59;4.27;;;2.77;;
7479;SDS011;3781;42.272;22.658;2022-10-01T09:54:31;6.73;;;3.30;;
7479;SDS011;3781;42.272;22.658;2022-10-01T09:57:05;4.50;;;3.70;;
7479;SDS011;3781;42.272;22.658;2022-10-01T09:59:37;5.67;;;3.77;;
7479;SDS011;3781;42.272;22.658;2022-10-01T10:02:12;4.33;;;3.93;;
7479;SDS011;3781;42.272;22.658;2022-10-01T10:04:45;17.10;;;4.77;;
7479;SDS011;3781;42.272;22.658;2022-10-01T10:07:14;7.77;;;5.90;;
7479;SDS011;3781;42.272;22.658;2022-10-01T10:09:44;5.73;;;4.30;;
7479;SDS011;3781;42.272;22.658;2022-10-01T10:12:23;7.97;;;5.47;;
7479;SDS011;3781;42.272;22.658;2022-10-01T10:14:55;7.03;;;4.20;;
7479;SDS011;3781;42.272;22.658;2022-10-01T10:17:23;5.17;;;4.07;;
7479;SDS011;3781;42.272;22.658;2022-10-01T10:19:50;7.90;;;3.67;;
7479;SDS011;3781;42.272;22.658;2022-10-01T10:22:21;8.07;;;4.53;;
7479;SDS011;3781;42.272;22.658;2022-10-01T10:24:49;8.00;;;4.47;;
7479;SDS011;3781;42.272;22.658;2022-10-01T10:27:21;6.40;;;3.93;;
7479;SDS011;3781;42.272;22.658;2022-10-01T10:30:04;5.47;;;4.13;;
7479;SDS011;3781;42.272;22.658;2022-10-01T10:32:32;7.60;;;4.53;;
7479;SDS011;3781;42.272;22.658;2022-10-01T10:35:00;4.33;;;3.63;;
7479;SDS011;3781;42.272;22.658;2022-10-01T10:37:35;6.33;;;4.07;;
7479;SDS011;3781;42.272;22.658;2022-10-01T10:40:05;4.63;;;4.13;;
7479;SDS011;3781;42.272;22.658;2022-10-01T10:42:33;5.23;;;4.70;;
7479;SDS011;3781;42.272;22.658;2022-10-01T10:45:02;13.77;;;7.40;;
7479;SDS011;3781;42.272;22.658;2022-10-01T10:47:42;9.73;;;7.43;;
7479;SDS011;3781;42.272;22.658;2022-10-01T10:50:12;8.50;;;5.37;;
7479;SDS011;3781;42.272;22.658;2022-10-01T10:52:54;6.57;;;4.60;;
7479;SDS011;3781;42.272;22.658;2022-10-01T10:55:22;8.53;;;5.13;;
7479;SDS011;3781;42.272;22.658;2022-10-01T10:57:50;3.93;;;3.30;;
7479;SDS011;3781;42.272;22.658;2022-10-01T11:00:20;2.70;;;2.50;;
7479;SDS011;3781;42.272;22.658;2022-10-01T11:02:50;9.87;;;2.73;;
7479;SDS011;3781;42.272;22.658;2022-10-01T11:05:21;4.30;;;3.07;;
7479;SDS011;3781;42.272;22.658;2022-10-01T11:07:52;3.47;;;2.53;;
7479;SDS011;3781;42.272;22.658;2022-10-01T11:10:23;6.40;;;3.20;;
7479;SDS011;3781;42.272;22.658;2022-10-01T11:13:15;2.57;;;2.23;;
7479;SDS011;3781;42.272;22.658;2022-10-01T11:16:16;2.67;;;2.43;;
7479;SDS011;3781;42.272;22.658;2022-10-01T11:19:01;2.93;;;2.70;;
7479;SDS011;3781;42.272;22.658;2022-10-01T11:21:47;4.97;;;2.40;;
7479;SDS011;3781;42.272;22.658;2022-10-01T11:24:38;3.20;;;2.90;;
7479;SDS011;3781;42.272;22.658;2022-10-01T11:27:19;3.77;;;2.23;;
7479;SDS011;3781;42.272;22.658;2022-10-01T11:29:54;5.97;;;3.73;;
7479;SDS011;3781;42.272;22.658;2022-10-01T11:32:31;3.40;;;2.67;;
7479;SDS011;3781;42.272;22.658;2022-10-01T11:35:10;3.07;;;2.77;;
7479;SDS011;3781;42.272;22.658;2022-10-01T11:37:52;3.90;;;2.73;;
7479;SDS011;3781;42.272;22.658;2022-10-01T11:40:32;1.60;;;1.50;;
7479;SDS011;3781;42.272;22.658;2022-10-01T11:43:07;6.03;;;2.37;;
7479;SDS011;3781;42.272;22.658;2022-10-01T11:45:42;3.00;;;2.20;;
7479;SDS011;3781;42.272;22.658;2022-10-01T11:48:14;4.10;;;1.93;;
7479;SDS011;3781;42.272;22.658;2022-10-01T11:50:46;3.00;;;2.80;;
7479;SDS011;3781;42.272;22.658;2022-10-01T11:53:16;2.30;;;2.10;;
7479;SDS011;3781;42.272;22.658;2022-10-01T11:55:49;1.90;;;1.77;;
7479;SDS011;3781;42.272;22.658;2022-10-01T11:58:38;1.97;;;1.77;;
7479;SDS011;3781;42.272;22.658;2022-10-01T12:01:20;2.03;;;1.83;;
7479;SDS011;3781;42.272;22.658;2022-10-01T12:04:02;2.27;;;1.80;;
7479;SDS011;3781;42.272;22.658;2022-10-01T12:06:38;1.30;;;1.20;;
7479;SDS011;3781;42.272;22.658;2022-10-01T12:09:15;3.10;;;2.03;;
7479;SDS011;3781;42.272;22.658;2022-10-01T12:11:48;2.73;;;1.80;;
7479;SDS011;3781;42.272;22.658;2022-10-01T12:14:20;1.43;;;1.33;;
7479;SDS011;3781;42.272;22.658;2022-10-01T12:16:53;3.50;;;1.63;;
7479;SDS011;3781;42.272;22.658;2022-10-01T12:19:25;1.60;;;1.50;;
7479;SDS011;3781;42.272;22.658;2022-10-01T12:21:58;4.87;;;2.03;;
7479;SDS011;3781;42.272;22.658;2022-10-01T12:24:32;1.33;;;1.20;;
7479;SDS011;3781;42.272;22.658;2022-10-01T12:27:21;3.13;;;2.13;;
7479;SDS011;3781;42.272;22.658;2022-10-01T12:30:02;1.73;;;1.57;;
7479;SDS011;3781;42.272;22.658;2022-10-01T12:32:32;1.23;;;1.13;;
7479;SDS011;3781;42.272;22.658;2022-10-01T12:35:17;1.53;;;1.10;;
7479;SDS011;3781;42.272;22.658;2022-10-01T12:37:56;2.03;;;1.80;;
7479;SDS011;3781;42.272;22.658;2022-10-01T12:40:39;1.47;;;1.20;;
7479;SDS011;3781;42.272;22.658;2022-10-01T12:46:17;1.13;;;1.13;;
7479;SDS011;3781;42.272;22.658;2022-10-01T12:48:54;1.67;;;1.00;;
7479;SDS011;3781;42.272;22.658;2022-10-01T12:51:39;2.50;;;1.50;;
7479;SDS011;3781;42.272;22.658;2022-10-01T12:54:16;1.50;;;1.40;;
7479;SDS011;3781;42.272;22.658;2022-10-01T12:57:01;1.40;;;1.07;;
7479;SDS011;3781;42.272;22.658;2022-10-01T12:59:42;1.30;;;1.20;;
7479;SDS011;3781;42.272;22.658;2022-10-01T13:02:36;4.13;;;1.30;;
7479;SDS011;3781;42.272;22.658;2022-10-01T13:05:23;1.23;;;1.13;;
7479;SDS011;3781;42.272;22.658;2022-10-01T13:08:03;1.00;;;1.00;;
7479;SDS011;3781;42.272;22.658;2022-10-01T13:10:44;1.00;;;0.90;;
7479;SDS011;3781;42.272;22.658;2022-10-01T13:13:18;1.20;;;1.20;;
7479;SDS011;3781;42.272;22.658;2022-10-01T13:15:50;1.03;;;1.03;;
7479;SDS011;3781;42.272;22.658;2022-10-01T13:18:24;1.47;;;1.37;;
7479;SDS011;3781;42.272;22.658;2022-10-01T13:21:01;3.33;;;1.50;;
7479;SDS011;3781;42.272;22.658;2022-10-01T13:23:36;2.27;;;0.87;;
7479;SDS011;3781;42.272;22.658;2022-10-01T13:26:10;1.23;;;1.20;;
7479;SDS011;3781;42.272;22.658;2022-10-01T13:31:32;0.80;;;0.80;;
7479;SDS011;3781;42.272;22.658;2022-10-01T13:34:19;1.27;;;1.23;;
7479;SDS011;3781;42.272;22.658;2022-10-01T13:36:50;1.53;;;1.00;;
7479;SDS011;3781;42.272;22.658;2022-10-01T13:39:22;1.07;;;1.07;;
7479;SDS011;3781;42.272;22.658;2022-10-01T13:41:50;1.30;;;1.20;;
7479;SDS011;3781;42.272;22.658;2022-10-01T13:44:22;1.27;;;1.17;;
7479;SDS011;3781;42.272;22.658;2022-10-01T13:46:55;1.48;;;0.90;;
7479;SDS011;3781;42.272;22.658;2022-10-01T13:49:27;0.90;;;0.90;;
7479;SDS011;3781;42.272;22.658;2022-10-01T13:51:56;1.20;;;1.02;;
7479;SDS011;3781;42.272;22.658;2022-10-01T13:54:25;3.67;;;1.40;;
7479;SDS011;3781;42.272;22.658;2022-10-01T13:57:06;1.70;;;1.23;;
7479;SDS011;3781;42.272;22.658;2022-10-01T13:59:36;2.53;;;1.35;;
7479;SDS011;3781;42.272;22.658;2022-10-01T14:04:52;1.45;;;1.35;;
7479;SDS011;3781;42.272;22.658;2022-10-01T14:07:22;1.30;;;1.20;;
7479;SDS011;3781;42.272;22.658;2022-10-01T14:09:54;1.65;;;1.55;;
7479;SDS011;3781;42.272;22.658;2022-10-01T14:12:26;1.27;;;1.17;;
7479;SDS011;3781;42.272;22.658;2022-10-01T14:15:14;1.80;;;1.60;;
7479;SDS011;3781;42.272;22.658;2022-10-01T14:18:02;1.13;;;1.10;;
7479;SDS011;3781;42.272;22.658;2022-10-01T14:20:33;0.80;;;0.80;;
7479;SDS011;3781;42.272;22.658;2022-10-01T14:23:13;1.50;;;1.27;;
7479;SDS011;3781;42.272;22.658;2022-10-01T14:25:47;1.63;;;1.10;;
7479;SDS011;3781;42.272;22.658;2022-10-01T14:28:28;3.17;;;1.45;;
7479;SDS011;3781;42.272;22.658;2022-10-01T14:31:05;0.93;;;0.93;;
7479;SDS011;3781;42.272;22.658;2022-10-01T14:36:43;2.05;;;1.38;;
7479;SDS011;3781;42.272;22.658;2022-10-01T14:39:13;3.35;;;1.50;;
7479;SDS011;3781;42.272;22.658;2022-10-01T14:41:43;4.22;;;1.42;;
7479;SDS011;3781;42.272;22.658;2022-10-01T14:44:18;1.35;;;1.27;;
7479;SDS011;3781;42.272;22.658;2022-10-01T14:46:50;0.85;;;0.85;;
7479;SDS011;3781;42.272;22.658;2022-10-01T14:49:18;1.40;;;1.30;;
7479;SDS011;3781;42.272;22.658;2022-10-01T14:51:51;2.15;;;1.30;;
7479;SDS011;3781;42.272;22.658;2022-10-01T14:54:21;1.05;;;0.90;;
7479;SDS011;3781;42.272;22.658;2022-10-01T14:56:50;1.40;;;1.30;;
7479;SDS011;3781;42.272;22.658;2022-10-01T14:59:19;1.10;;;1.00;;
7479;SDS011;3781;42.272;22.658;2022-10-01T15:01:57;1.30;;;1.20;;
7479;SDS011;3781;42.272;22.658;2022-10-01T15:04:25;1.00;;;1.00;;
7479;SDS011;3781;42.272;22.658;2022-10-01T15:06:52;1.42;;;0.95;;
7479;SDS011;3781;42.272;22.658;2022-10-01T15:09:19;3.72;;;1.38;;
7479;SDS011;3781;42.272;22.658;2022-10-01T15:11:46;1.60;;;1.17;;
7479;SDS011;3781;42.272;22.658;2022-10-01T15:14:17;3.53;;;1.38;;
7479;SDS011;3781;42.272;22.658;2022-10-01T15:16:46;1.38;;;1.27;;
7479;SDS011;3781;42.272;22.658;2022-10-01T15:19:14;2.95;;;1.30;;
7479;SDS011;3781;42.272;22.658;2022-10-01T15:21:44;1.58;;;1.48;;
7479;SDS011;3781;42.272;22.658;2022-10-01T15:24:19;1.58;;;1.48;;
7479;SDS011;3781;42.272;22.658;2022-10-01T15:26:49;1.70;;;1.48;;
7479;SDS011;3781;42.272;22.658;2022-10-01T15:29:18;1.00;;;1.00;;
7479;SDS011;3781;42.272;22.658;2022-10-01T15:31:45;0.90;;;0.90;;
7479;SDS011;3781;42.272;22.658;2022-10-01T15:34:15;5.60;;;1.27;;
7479;SDS011;3781;42.272;22.658;2022-10-01T15:36:43;1.47;;;1.37;;